createdAt,value
2019-06-26T00:02:11.844Z,99.90
2019-06-26T00:04:41.499Z,99.90
2019-06-26T00:07:11.671Z,99.90
2019-06-26T00:09:41.580Z,99.90
2019-06-26T00:12:11.681Z,99.90
2019-06-26T00:14:42.304Z,99.90
2019-06-26T00:17:12.133Z,99.90
2019-06-26T00:19:41.759Z,99.90
2019-06-26T00:22:12.623Z,99.90
2019-06-26T00:24:41.995Z,99.90
2019-06-26T00:27:12.255Z,99.90
2019-06-26T00:29:42.264Z,99.90
2019-06-26T00:32:12.467Z,99.90
2019-06-26T00:34:42.162Z,99.90
2019-06-26T00:37:12.537Z,99.90
2019-06-26T00:39:42.588Z,99.90
2019-06-26T00:42:12.586Z,99.90
2019-06-26T00:44:42.639Z,99.90
2019-06-26T00:47:12.960Z,99.90
2019-06-26T00:49:42.589Z,99.90
2019-06-26T00:52:13.012Z,99.90
2019-06-26T00:54:42.828Z,99.90
2019-06-26T00:57:13.403Z,99.90
2019-06-26T00:59:43.512Z,99.90
2019-06-26T01:02:13.245Z,99.90
2019-06-26T01:04:45.636Z,99.90
2019-06-26T01:07:15.101Z,99.90
2019-06-26T01:09:44.859Z,99.90
2019-06-26T01:12:14.102Z,99.90
2019-06-26T01:14:43.268Z,99.90
2019-06-26T01:17:13.909Z,99.90
2019-06-26T01:19:43.556Z,99.90
2019-06-26T01:22:14.067Z,99.90
2019-06-26T01:24:43.716Z,99.90
2019-06-26T01:27:13.763Z,99.90
2019-06-26T01:29:43.782Z,99.90
2019-06-26T01:32:14.141Z,99.90
2019-06-26T01:34:43.940Z,99.90
2019-06-26T01:37:14.308Z,99.90
2019-06-26T01:39:44.323Z,99.90
2019-06-26T01:42:14.567Z,99.90
2019-06-26T01:44:44.191Z,99.90
2019-06-26T01:47:14.269Z,99.90
2019-06-26T01:49:44.494Z,99.90
2019-06-26T01:52:14.001Z,99.90
2019-06-26T01:54:43.879Z,99.90
2019-06-26T01:57:14.256Z,99.90
2019-06-26T01:59:44.307Z,99.90
2019-06-26T02:02:14.015Z,99.90
2019-06-26T02:04:44.052Z,99.90
2019-06-26T02:07:14.156Z,99.90
2019-06-26T02:09:44.510Z,99.90
2019-06-26T02:12:14.890Z,99.90
2019-06-26T02:14:44.513Z,99.90
2019-06-26T02:17:14.264Z,99.90
2019-06-26T02:19:44.808Z,99.90
2019-06-26T02:22:14.860Z,99.90
2019-06-26T02:24:44.476Z,99.90
2019-06-26T02:27:14.617Z,99.90
2019-06-26T02:29:44.703Z,99.90
2019-06-26T02:32:14.499Z,99.90
2019-06-26T02:34:44.403Z,99.90
2019-06-26T02:37:14.488Z,99.90
2019-06-26T02:39:45.099Z,99.90
2019-06-26T02:42:15.218Z,99.90
2019-06-26T02:44:52.785Z,99.90
2019-06-26T02:47:20.203Z,99.90
2019-06-26T02:49:47.489Z,99.90
2019-06-26T02:52:16.924Z,99.90
2019-06-26T02:54:46.908Z,99.90
2019-06-26T02:57:16.144Z,99.90
2019-06-26T02:59:45.279Z,99.90
2019-06-26T03:02:15.031Z,99.90
2019-06-26T03:04:45.909Z,99.90
2019-06-26T03:07:15.328Z,99.90
2019-06-26T03:09:45.311Z,99.90
2019-06-26T03:12:15.217Z,99.90
2019-06-26T03:14:45.524Z,99.90
2019-06-26T03:17:15.525Z,99.90
2019-06-26T03:19:45.750Z,99.90
2019-06-26T03:22:15.551Z,99.90
2019-06-26T03:24:45.804Z,99.90
2019-06-26T03:27:15.445Z,99.90
2019-06-26T03:29:45.427Z,99.90
2019-06-26T03:32:15.782Z,99.90
2019-06-26T03:34:46.104Z,99.90
2019-06-26T03:37:15.832Z,99.90
2019-06-26T03:39:45.592Z,99.90
2019-06-26T03:42:15.691Z,99.90
2019-06-26T03:44:45.751Z,99.90
2019-06-26T03:47:15.969Z,99.90
2019-06-26T03:49:46.027Z,99.90
2019-06-26T03:52:16.063Z,99.90
2019-06-26T03:54:46.804Z,99.90
2019-06-26T03:57:15.967Z,99.90
2019-06-26T03:59:46.204Z,99.90
2019-06-26T04:02:16.332Z,99.90
2019-06-26T04:04:46.349Z,99.90
2019-06-26T04:07:16.647Z,99.90
2019-06-26T04:09:46.655Z,99.90
2019-06-26T04:12:16.422Z,99.90
2019-06-26T04:14:46.485Z,99.90
2019-06-26T04:17:16.183Z,99.90
2019-06-26T04:19:46.863Z,99.90
2019-06-26T04:22:16.903Z,99.90
2019-06-26T04:24:46.892Z,99.90
2019-06-26T04:27:16.347Z,99.90
2019-06-26T04:29:46.452Z,99.90
2019-06-26T04:32:16.851Z,99.90
2019-06-26T04:34:46.872Z,99.90
2019-06-26T04:37:16.951Z,99.90
2019-06-26T04:39:46.538Z,99.90
2019-06-26T04:42:17.191Z,99.90
2019-06-26T04:44:46.965Z,99.90
2019-06-26T04:47:17.242Z,99.90
2019-06-26T04:49:47.095Z,99.90
2019-06-26T04:52:17.111Z,99.90
2019-06-26T04:54:47.134Z,99.90
2019-06-26T04:57:17.531Z,99.90
2019-06-26T04:59:47.006Z,99.90
2019-06-26T05:02:19.376Z,99.90
2019-06-26T05:04:49.222Z,99.90
2019-06-26T05:07:18.735Z,99.90
2019-06-26T05:09:48.196Z,99.90
2019-06-26T05:12:17.369Z,99.90
2019-06-26T05:14:48.009Z,99.90
2019-06-26T05:17:17.885Z,99.90
2019-06-26T05:19:47.403Z,99.90
2019-06-26T05:22:17.955Z,99.90
2019-06-26T05:24:47.502Z,99.90
2019-06-26T05:27:17.854Z,99.90
2019-06-26T05:29:47.647Z,99.90
2019-06-26T05:32:17.904Z,99.90
2019-06-26T05:34:48.060Z,99.90
2019-06-26T05:37:17.663Z,99.90
2019-06-26T05:39:47.761Z,99.90
2019-06-26T05:42:17.698Z,99.50
2019-06-26T05:44:48.043Z,99.60
2019-06-26T05:47:18.384Z,99.90
2019-06-26T05:49:48.152Z,99.50
2019-06-26T05:52:18.163Z,99.90
2019-06-26T05:54:48.750Z,99.50
2019-06-26T05:57:18.026Z,98.60
2019-06-26T05:59:48.061Z,98.70
2019-06-26T06:02:18.203Z,98.70
2019-06-26T06:04:48.407Z,98.40
2019-06-26T06:07:21.683Z,97.90
2019-06-26T06:09:51.081Z,98.10
2019-06-26T06:12:20.223Z,97.50
2019-06-26T06:14:49.983Z,97.50
2019-06-26T06:17:19.520Z,97.70
2019-06-26T06:19:49.035Z,97.50
2019-06-26T06:22:18.830Z,97.00
2019-06-26T06:24:49.067Z,95.50
2019-06-26T06:27:18.860Z,95.60
2019-06-26T06:29:48.844Z,96.70
2019-06-26T06:32:18.615Z,95.40
2019-06-26T06:34:48.885Z,95.40
2019-06-26T06:37:18.900Z,94.40
2019-06-26T06:39:49.294Z,93.40
2019-06-26T06:42:18.940Z,93.60
2019-06-26T06:44:49.011Z,92.00
2019-06-26T06:47:19.246Z,92.20
2019-06-26T06:49:49.096Z,93.10
2019-06-26T06:52:19.371Z,93.90
2019-06-26T06:54:48.835Z,93.60
2019-06-26T06:57:18.885Z,93.70
2019-06-26T06:59:48.879Z,94.10
2019-06-26T07:02:19.493Z,94.60
2019-06-26T07:04:48.995Z,94.40
2019-06-26T07:07:18.973Z,95.40
2019-06-26T07:09:48.966Z,94.70
2019-06-26T07:12:20.954Z,94.30
2019-06-26T07:14:50.615Z,94.20
2019-06-26T07:17:21.279Z,93.30
2019-06-26T07:19:50.782Z,93.80
2019-06-26T07:22:20.003Z,93.60
2019-06-26T07:24:49.187Z,92.70
2019-06-26T07:27:19.559Z,93.20
2019-06-26T07:29:49.521Z,92.30
2019-06-26T07:32:19.492Z,94.30
2019-06-26T07:34:50.034Z,92.10
2019-06-26T07:37:19.803Z,92.20
2019-06-26T07:39:50.108Z,91.60
2019-06-26T07:42:19.351Z,90.50
2019-06-26T07:44:49.423Z,90.70
2019-06-26T07:47:24.972Z,91.10
2019-06-26T07:49:50.410Z,90.80
2019-06-26T07:52:20.167Z,90.30
2019-06-26T07:54:49.903Z,91.00
2019-06-26T07:57:20.031Z,90.90
2019-06-26T07:59:49.770Z,91.50
2019-06-26T08:02:19.941Z,90.70
2019-06-26T08:04:49.614Z,89.70
2019-06-26T08:07:19.648Z,88.70
2019-06-26T08:09:49.729Z,89.70
2019-06-26T08:12:20.008Z,89.60
2019-06-26T08:14:50.024Z,89.60
2019-06-26T08:17:20.008Z,88.40
2019-06-26T08:19:49.783Z,88.80
2019-06-26T08:22:19.797Z,88.60
2019-06-26T08:24:50.438Z,89.00
2019-06-26T08:27:19.831Z,89.50
2019-06-26T08:29:50.276Z,88.60
2019-06-26T08:32:19.884Z,88.80
2019-06-26T08:34:49.899Z,88.40
2019-06-26T08:37:20.540Z,87.70
2019-06-26T08:39:50.644Z,88.20
2019-06-26T08:42:20.867Z,87.40
2019-06-26T08:44:50.051Z,88.10
2019-06-26T08:47:20.106Z,88.90
2019-06-26T08:49:50.800Z,88.90
2019-06-26T08:52:20.721Z,87.50
2019-06-26T08:54:50.176Z,87.40
2019-06-26T08:57:20.162Z,87.70
2019-06-26T08:59:50.262Z,87.30
2019-06-26T09:02:20.741Z,86.20
2019-06-26T09:04:50.784Z,84.50
2019-06-26T09:07:20.495Z,84.30
2019-06-26T09:09:50.901Z,84.40
2019-06-26T09:12:20.618Z,85.00
2019-06-26T09:14:50.356Z,86.40
2019-06-26T09:17:20.299Z,84.60
2019-06-26T09:19:50.334Z,86.30
2019-06-26T09:22:20.884Z,84.60
2019-06-26T09:24:50.677Z,84.60
2019-06-26T09:27:21.249Z,82.80
2019-06-26T09:29:50.998Z,82.60
2019-06-26T09:32:20.948Z,83.00
2019-06-26T09:34:50.786Z,84.20
2019-06-26T09:37:20.899Z,85.10
2019-06-26T09:39:50.603Z,84.50
2019-06-26T09:42:20.603Z,84.80
2019-06-26T09:44:50.688Z,84.60
2019-06-26T09:47:21.414Z,81.40
2019-06-26T09:49:50.679Z,82.90
2019-06-26T09:52:21.591Z,80.60
2019-06-26T09:54:51.341Z,80.60
2019-06-26T09:57:20.756Z,79.20
2019-06-26T09:59:50.758Z,80.60
2019-06-26T10:02:21.043Z,82.30
2019-06-26T10:04:50.848Z,78.70
2019-06-26T10:07:20.795Z,75.90
2019-06-26T10:09:51.396Z,74.40
2019-06-26T10:12:20.830Z,74.60
2019-06-26T10:14:50.901Z,76.50
2019-06-26T10:17:21.090Z,77.30
2019-06-26T10:19:54.008Z,78.60
2019-06-26T10:22:22.120Z,79.50
2019-06-26T10:24:51.364Z,79.70
2019-06-26T10:27:21.454Z,80.60
2019-06-26T10:29:51.159Z,78.50
2019-06-26T10:32:21.238Z,78.70
2019-06-26T10:34:51.178Z,79.00
2019-06-26T10:37:21.789Z,79.50
2019-06-26T10:39:51.137Z,75.30
2019-06-26T10:42:22.119Z,77.00
2019-06-26T10:44:51.319Z,75.60
2019-06-26T10:47:21.463Z,77.40
2019-06-26T10:49:51.658Z,71.90
2019-06-26T10:52:22.225Z,69.80
2019-06-26T10:54:51.383Z,68.60
2019-06-26T10:57:21.536Z,66.50
2019-06-26T10:59:55.491Z,69.40
2019-06-26T11:02:22.875Z,71.80
2019-06-26T11:04:52.435Z,72.90
2019-06-26T11:07:22.175Z,75.10
2019-06-26T11:09:51.963Z,74.60
2019-06-26T11:12:22.223Z,74.50
2019-06-26T11:14:51.726Z,75.30
2019-06-26T11:17:22.155Z,75.40
2019-06-26T11:19:55.369Z,74.00
2019-06-26T11:22:23.282Z,73.10
2019-06-26T11:24:52.513Z,76.00
2019-06-26T11:27:21.868Z,73.40
2019-06-26T11:29:52.532Z,71.40
2019-06-26T11:32:21.966Z,69.60
2019-06-26T11:34:51.979Z,71.00
2019-06-26T11:37:23.248Z,70.50
2019-06-26T11:39:52.923Z,72.20
2019-06-26T11:42:22.114Z,72.90
2019-06-26T11:44:52.132Z,71.10
2019-06-26T11:47:22.007Z,71.20
2019-06-26T11:49:59.989Z,71.90
2019-06-26T11:52:23.956Z,70.90
2019-06-26T11:55:02.482Z,71.90
2019-06-26T11:57:24.091Z,72.50
2019-06-26T11:59:53.245Z,74.30
2019-06-26T12:02:22.711Z,74.40
2019-06-26T12:04:52.477Z,72.90
2019-06-26T12:07:22.653Z,72.00
2019-06-26T12:09:52.683Z,72.70
2019-06-26T12:12:22.940Z,72.50
2019-06-26T12:14:52.721Z,74.00
2019-06-26T12:17:22.562Z,73.50
2019-06-26T12:19:53.300Z,74.00
2019-06-26T12:22:22.596Z,73.30
2019-06-26T12:24:52.967Z,74.90
2019-06-26T12:27:22.892Z,72.70
2019-06-26T12:29:52.976Z,71.20
2019-06-26T12:32:22.764Z,69.20
2019-06-26T12:34:53.131Z,74.00
2019-06-26T12:37:36.599Z,74.00
2019-06-26T12:39:54.544Z,71.20
2019-06-26T12:42:23.676Z,71.80
2019-06-26T12:44:53.171Z,71.80
2019-06-26T12:47:23.206Z,72.30
2019-06-26T12:49:53.204Z,70.50
2019-06-26T12:52:23.332Z,71.90
2019-06-26T12:54:53.073Z,71.60
2019-06-26T12:57:38.484Z,73.10
2019-06-26T13:00:08.929Z,73.00
2019-06-26T13:02:38.111Z,71.20
2019-06-26T13:05:07.580Z,72.20
2019-06-26T13:07:36.883Z,69.90
2019-06-26T13:10:07.673Z,70.50
2019-06-26T13:12:37.444Z,71.80
2019-06-26T13:15:06.680Z,70.70
2019-06-26T13:17:36.355Z,69.40
2019-06-26T13:20:09.500Z,70.30
2019-06-26T13:22:37.437Z,71.00
2019-06-26T13:25:07.067Z,72.20
2019-06-26T13:27:36.527Z,71.60
2019-06-26T13:30:06.210Z,69.80
2019-06-26T13:32:35.724Z,68.60
2019-06-26T13:35:05.127Z,72.10
2019-06-26T13:37:34.561Z,73.70
2019-06-26T13:40:03.986Z,67.90
2019-06-26T13:42:34.581Z,68.40
2019-06-26T13:45:04.367Z,68.90
2019-06-26T13:47:33.579Z,67.90
2019-06-26T13:50:03.383Z,71.50
2019-06-26T13:52:33.065Z,68.80
2019-06-26T13:55:02.453Z,67.40
2019-06-26T13:57:31.673Z,64.80
2019-06-26T14:00:01.141Z,66.80
2019-06-26T14:02:31.173Z,66.80
2019-06-26T14:05:00.381Z,65.00
2019-06-26T14:07:29.523Z,65.50
2019-06-26T14:09:58.995Z,63.50
2019-06-26T14:12:28.439Z,65.20
2019-06-26T14:14:58.325Z,65.30
2019-06-26T14:17:27.971Z,66.10
2019-06-26T14:19:57.135Z,66.30
2019-06-26T14:22:26.285Z,64.70
2019-06-26T14:24:55.755Z,64.50
2019-06-26T14:27:25.187Z,63.30
2019-06-26T14:29:55.328Z,66.50
2019-06-26T14:32:25.084Z,64.80
2019-06-26T14:34:55.064Z,64.10
2019-06-26T14:37:25.104Z,63.50
2019-06-26T14:39:54.836Z,62.80
2019-06-26T14:42:25.211Z,63.00
2019-06-26T14:44:55.498Z,65.30
2019-06-26T14:47:25.537Z,63.00
2019-06-26T14:49:55.283Z,65.00
2019-06-26T14:52:25.039Z,62.50
2019-06-26T14:54:55.356Z,65.10
2019-06-26T14:57:26.149Z,62.30
2019-06-26T14:59:56.015Z,61.20
2019-06-26T15:02:25.173Z,64.40
2019-06-26T15:04:55.878Z,65.40
2019-06-26T15:07:25.255Z,66.10
2019-06-26T15:09:55.305Z,65.00
2019-06-26T15:12:26.045Z,63.10
2019-06-26T15:14:55.695Z,61.60
2019-06-26T15:17:25.427Z,61.70
2019-06-26T15:19:55.811Z,60.20
2019-06-26T15:22:25.587Z,64.50
2019-06-26T15:24:55.976Z,60.50
2019-06-26T15:27:26.266Z,61.60
2019-06-26T15:29:55.885Z,60.70
2019-06-26T15:32:25.640Z,59.90
2019-06-26T15:34:55.680Z,61.00
2019-06-26T15:37:26.105Z,61.50
2019-06-26T15:39:56.392Z,61.30
2019-06-26T15:42:26.748Z,61.10
2019-06-26T15:44:56.227Z,59.70
2019-06-26T15:47:26.436Z,62.90
2019-06-26T15:49:56.344Z,65.40
2019-06-26T15:52:25.999Z,66.00
2019-06-26T15:54:56.543Z,66.60
2019-06-26T15:57:26.571Z,67.10
2019-06-26T15:59:56.532Z,66.80
2019-06-26T16:02:26.824Z,63.80
2019-06-26T16:04:56.116Z,61.80
2019-06-26T16:07:26.611Z,61.60
2019-06-26T16:09:56.591Z,62.40
2019-06-26T16:12:26.349Z,63.50
2019-06-26T16:14:56.931Z,62.00
2019-06-26T16:17:36.876Z,64.60
2019-06-26T16:20:06.152Z,62.50
2019-06-26T16:22:35.912Z,60.80
2019-06-26T16:25:05.279Z,62.10
2019-06-26T16:27:34.470Z,69.20
2019-06-26T16:30:03.866Z,66.20
2019-06-26T16:32:33.075Z,67.90
2019-06-26T16:35:02.483Z,64.30
2019-06-26T16:37:31.923Z,63.10
2019-06-26T16:40:01.066Z,60.70
2019-06-26T16:42:30.556Z,66.10
2019-06-26T16:45:00.035Z,67.30
2019-06-26T16:47:29.264Z,66.70
2019-06-26T16:49:58.752Z,67.60
2019-06-26T16:52:28.284Z,66.50
2019-06-26T16:54:57.975Z,65.90
2019-06-26T16:57:27.463Z,63.50
2019-06-26T17:00:08.999Z,65.30
2019-06-26T17:02:28.652Z,64.20
2019-06-26T17:04:57.795Z,64.20
2019-06-26T17:07:27.197Z,62.70
2019-06-26T17:09:58.290Z,66.50
2019-06-26T17:12:27.891Z,65.10
2019-06-26T17:14:57.513Z,65.60
2019-06-26T17:17:27.702Z,64.20
2019-06-26T17:19:57.974Z,68.70
2019-06-26T17:22:27.575Z,62.80
2019-06-26T17:24:57.712Z,64.20
2019-06-26T17:27:27.868Z,66.30
2019-06-26T17:29:57.748Z,66.40
2019-06-26T17:32:28.010Z,64.30
2019-06-26T17:34:57.911Z,64.60
2019-06-26T17:37:27.900Z,66.70
2019-06-26T17:39:57.806Z,66.40
2019-06-26T17:42:28.205Z,69.10
2019-06-26T17:44:58.244Z,68.30
2019-06-26T17:47:28.377Z,66.90
2019-06-26T17:49:58.642Z,68.70
2019-06-26T17:52:28.395Z,68.10
2019-06-26T17:54:58.411Z,67.70
2019-06-26T17:57:28.898Z,67.60
2019-06-26T17:59:58.276Z,66.80
2019-06-26T18:02:28.641Z,64.30
2019-06-26T18:04:58.824Z,63.60
2019-06-26T18:07:28.920Z,63.90
2019-06-26T18:09:58.436Z,64.40
2019-06-26T18:12:28.475Z,66.20
2019-06-26T18:14:58.551Z,65.90
2019-06-26T18:17:28.875Z,65.00
2019-06-26T18:19:58.835Z,66.60
2019-06-26T18:22:29.328Z,68.10
2019-06-26T18:24:58.675Z,66.30
2019-06-26T18:27:27.842Z,66.70
2019-06-26T18:29:57.664Z,66.20
2019-06-26T18:32:27.108Z,66.30
2019-06-26T18:34:56.833Z,65.40
2019-06-26T18:37:25.983Z,65.90
2019-06-26T18:39:55.158Z,67.10
2019-06-26T18:42:24.291Z,67.10
2019-06-26T18:44:53.736Z,67.80
2019-06-26T18:47:22.865Z,69.50
2019-06-26T18:49:52.020Z,67.70
2019-06-26T18:52:21.503Z,68.80
2019-06-26T18:54:51.556Z,69.80
2019-06-26T18:57:21.460Z,69.70
2019-06-26T18:59:50.627Z,70.40
2019-06-26T19:02:19.804Z,70.70
2019-06-26T19:04:49.275Z,70.10
2019-06-26T19:07:18.480Z,69.50
2019-06-26T19:09:47.649Z,70.60
2019-06-26T19:12:17.132Z,71.20
2019-06-26T19:14:46.573Z,71.10
2019-06-26T19:17:16.376Z,72.00
2019-06-26T19:19:46.211Z,75.20
2019-06-26T19:22:15.376Z,78.40
2019-06-26T19:24:44.797Z,82.10
2019-06-26T19:27:14.223Z,82.70
2019-06-26T19:29:43.373Z,83.50
2019-06-26T19:32:12.855Z,82.40
2019-06-26T19:34:42.464Z,84.10
2019-06-26T19:37:12.214Z,83.10
2019-06-26T19:39:42.039Z,84.60
2019-06-26T19:42:11.198Z,85.30
2019-06-26T19:44:40.423Z,85.70
2019-06-26T19:47:09.824Z,86.40
2019-06-26T19:49:39.245Z,86.70
2019-06-26T19:52:08.472Z,87.80
2019-06-26T19:54:37.904Z,88.90
2019-06-26T19:57:07.630Z,88.90
2019-06-26T19:59:37.749Z,89.20
2019-06-26T20:02:07.191Z,88.20
2019-06-26T20:04:36.623Z,88.80
2019-06-26T20:07:05.939Z,89.50
2019-06-26T20:09:35.763Z,90.00
2019-06-26T20:12:05.619Z,90.00
2019-06-26T20:14:34.895Z,90.20
2019-06-26T20:17:04.673Z,90.80
2019-06-26T20:19:35.937Z,91.00
2019-06-26T20:22:05.674Z,91.40
2019-06-26T20:24:43.928Z,91.60
2019-06-26T20:27:06.079Z,92.00
2019-06-26T20:29:35.619Z,92.30
2019-06-26T20:32:05.187Z,92.80
2019-06-26T20:34:35.024Z,93.00
2019-06-26T20:37:04.526Z,93.00
2019-06-26T20:39:34.551Z,93.40
2019-06-26T20:42:03.842Z,93.10
2019-06-26T20:44:33.429Z,93.40
2019-06-26T20:47:03.452Z,93.80
2019-06-26T20:49:32.857Z,93.80
2019-06-26T20:52:02.401Z,93.70
2019-06-26T20:54:32.385Z,93.80
2019-06-26T20:57:02.733Z,93.60
2019-06-26T20:59:32.721Z,93.80
2019-06-26T21:02:02.750Z,94.40
2019-06-26T21:04:32.778Z,94.90
2019-06-26T21:07:03.078Z,95.00
2019-06-26T21:09:32.866Z,95.10
2019-06-26T21:12:02.842Z,95.40
2019-06-26T21:14:34.007Z,95.50
2019-06-26T21:17:04.234Z,95.50
2019-06-26T21:19:34.420Z,94.90
2019-06-26T21:22:04.252Z,95.10
2019-06-26T21:24:34.324Z,95.50
2019-06-26T21:27:05.604Z,95.40
2019-06-26T21:29:39.407Z,95.30
2019-06-26T21:32:10.255Z,95.20
2019-06-26T21:34:40.996Z,95.30
2019-06-26T21:37:10.958Z,95.30
2019-06-26T21:39:41.409Z,95.50
2019-06-26T21:42:11.802Z,95.70
2019-06-26T21:44:41.960Z,95.90
2019-06-26T21:47:18.706Z,96.50
2019-06-26T21:49:48.726Z,97.00
2019-06-26T21:52:18.808Z,97.60
2019-06-26T21:54:48.303Z,97.80
2019-06-26T21:57:18.207Z,97.90
2019-06-26T21:59:47.759Z,98.00
2019-06-26T22:02:17.343Z,98.20
2019-06-26T22:04:47.369Z,98.40
2019-06-26T22:07:17.209Z,98.60
2019-06-26T22:09:46.877Z,98.90
2019-06-26T22:12:16.943Z,98.80
2019-06-26T22:14:46.648Z,98.50
2019-06-26T22:17:16.247Z,98.60
2019-06-26T22:19:47.420Z,99.00
2019-06-26T22:22:17.381Z,99.30
2019-06-26T22:24:47.314Z,99.80
2019-06-26T22:27:16.884Z,99.80
2019-06-26T22:29:47.320Z,99.60
2019-06-26T22:32:17.483Z,99.70
2019-06-26T22:34:48.255Z,99.40
2019-06-26T22:37:17.693Z,99.40
2019-06-26T22:39:47.988Z,99.50
2019-06-26T22:42:17.808Z,99.30
2019-06-26T22:44:47.731Z,99.00
2019-06-26T22:47:18.385Z,99.20
2019-06-26T22:49:51.917Z,99.20
2019-06-26T22:52:21.885Z,99.40
2019-06-26T22:54:51.977Z,99.00
2019-06-26T22:57:22.036Z,99.30
2019-06-26T22:59:53.790Z,99.30
2019-06-26T23:02:25.696Z,99.20
2019-06-26T23:04:55.636Z,99.20
2019-06-26T23:07:26.011Z,99.60
2019-06-26T23:09:56.366Z,99.80
2019-06-26T23:12:26.833Z,99.90
2019-06-26T23:14:57.159Z,99.80
2019-06-26T23:17:26.775Z,99.60
2019-06-26T23:19:56.672Z,99.40
2019-06-26T23:32:52.850Z,99.90
2019-06-26T23:35:22.653Z,99.90
2019-06-26T23:37:52.865Z,99.90
2019-06-26T23:40:22.645Z,99.90
2019-06-26T23:42:52.124Z,99.90
2019-06-26T23:45:22.013Z,99.90
2019-06-26T23:47:51.302Z,99.90
2019-06-26T23:50:21.006Z,99.90
2019-06-26T23:52:50.796Z,99.90
2019-06-26T23:55:20.633Z,99.90
2019-06-26T23:57:59.182Z,99.90
